createdAt,value
2017-08-02T00:01:45.721Z,43.80
2017-08-02T00:04:14.631Z,40.13
2017-08-02T00:06:43.472Z,45.97
2017-08-02T00:09:14.711Z,42.83
2017-08-02T00:11:43.760Z,39.40
2017-08-02T00:14:12.164Z,36.90
2017-08-02T00:16:41.915Z,38.83
2017-08-02T00:19:10.178Z,36.90
2017-08-02T00:21:38.435Z,36.90
2017-08-02T00:24:06.671Z,34.63
2017-08-02T00:26:34.948Z,36.83
2017-08-02T00:29:03.198Z,39.30
2017-08-02T00:31:32.419Z,43.30
2017-08-02T00:34:01.033Z,38.97
2017-08-02T00:36:29.261Z,43.00
2017-08-02T00:38:57.549Z,42.07
2017-08-02T00:41:25.815Z,46.43
2017-08-02T00:43:54.106Z,48.37
2017-08-02T00:46:23.563Z,52.60
2017-08-02T00:48:52.628Z,46.80
2017-08-02T00:51:21.418Z,48.20
2017-08-02T00:53:51.369Z,42.23
2017-08-02T00:56:20.938Z,41.37
2017-08-02T00:58:50.660Z,39.77
2017-08-02T01:01:19.737Z,40.57
2017-08-02T01:03:47.987Z,38.80
2017-08-02T01:06:16.694Z,39.30
2017-08-02T01:08:44.972Z,41.33
2017-08-02T01:11:14.625Z,41.77
2017-08-02T01:13:45.042Z,41.43
2017-08-02T01:16:13.342Z,43.33
2017-08-02T01:18:43.429Z,45.87
2017-08-02T01:21:11.703Z,44.93
2017-08-02T01:23:39.938Z,47.30
2017-08-02T01:26:09.273Z,44.50
2017-08-02T01:28:38.145Z,42.40
2017-08-02T01:31:07.787Z,43.60
2017-08-02T01:33:36.243Z,44.70
2017-08-02T01:36:05.412Z,48.00
2017-08-02T01:38:33.682Z,47.20
2017-08-02T01:41:02.748Z,49.80
2017-08-02T01:43:30.971Z,47.37
2017-08-02T01:45:59.253Z,47.33
2017-08-02T01:48:27.562Z,46.83
2017-08-02T01:50:55.845Z,42.97
2017-08-02T01:53:24.115Z,45.53
2017-08-02T01:55:52.393Z,47.30
2017-08-02T01:58:20.651Z,42.00
2017-08-02T02:00:48.923Z,43.63
2017-08-02T02:03:17.203Z,44.90
2017-08-02T02:05:45.469Z,46.27
2017-08-02T02:08:13.714Z,44.30
2017-08-02T02:10:42.002Z,44.93
2017-08-02T02:13:11.016Z,46.03
2017-08-02T02:15:39.307Z,44.67
2017-08-02T02:18:09.876Z,43.47
2017-08-02T02:20:42.360Z,41.00
2017-08-02T02:23:11.524Z,42.57
2017-08-02T02:25:39.739Z,40.00
2017-08-02T02:28:09.470Z,39.33
2017-08-02T02:30:38.532Z,45.40
2017-08-02T02:33:06.794Z,43.03
2017-08-02T02:35:35.072Z,42.93
2017-08-02T02:38:04.247Z,40.17
2017-08-02T02:40:33.954Z,40.53
2017-08-02T02:43:02.247Z,47.00
2017-08-02T02:45:30.521Z,48.80
2017-08-02T02:47:58.757Z,46.17
2017-08-02T02:50:27.779Z,46.07
2017-08-02T02:52:56.059Z,46.83
2017-08-02T02:55:24.321Z,50.27
2017-08-02T02:57:52.586Z,48.10
2017-08-02T03:00:21.588Z,48.07
2017-08-02T03:02:49.856Z,51.30
2017-08-02T03:05:18.903Z,47.00
2017-08-02T03:07:47.155Z,48.97
2017-08-02T03:10:15.420Z,48.77
2017-08-02T03:12:43.677Z,50.53
2017-08-02T03:15:12.730Z,47.30
2017-08-02T03:17:41.421Z,49.23
2017-08-02T03:20:09.658Z,51.60
2017-08-02T03:22:37.928Z,51.13
2017-08-02T03:25:06.200Z,47.87
2017-08-02T03:27:34.512Z,47.43
2017-08-02T03:30:02.758Z,51.97
2017-08-02T03:32:31.018Z,51.00
2017-08-02T03:35:00.080Z,48.17
2017-08-02T03:37:28.350Z,50.90
2017-08-02T03:39:56.605Z,51.60
2017-08-02T03:42:24.841Z,48.03
2017-08-02T03:44:53.119Z,48.00
2017-08-02T03:47:22.169Z,49.53
2017-08-02T03:49:50.430Z,53.17
2017-08-02T03:52:18.696Z,50.30
2017-08-02T03:54:46.965Z,52.03
2017-08-02T03:57:15.227Z,51.27
2017-08-02T03:59:44.241Z,45.83
2017-08-02T04:02:13.365Z,48.97
2017-08-02T04:04:41.630Z,48.57
2017-08-02T04:07:09.907Z,51.57
2017-08-02T04:09:38.179Z,48.43
2017-08-02T04:12:06.426Z,46.80
2017-08-02T04:14:35.464Z,49.77
2017-08-02T04:17:03.725Z,47.43
2017-08-02T04:19:35.048Z,49.30
2017-08-02T04:22:04.274Z,48.10
2017-08-02T04:24:33.451Z,47.03
2017-08-02T04:27:02.475Z,47.87
2017-08-02T04:29:31.567Z,45.13
2017-08-02T04:31:59.819Z,51.73
2017-08-02T04:34:28.827Z,47.33
2017-08-02T04:36:57.116Z,45.97
2017-08-02T04:39:25.376Z,44.70
2017-08-02T04:41:54.395Z,45.97
2017-08-02T04:44:22.653Z,46.40
2017-08-02T04:46:50.938Z,44.13
2017-08-02T04:49:19.194Z,43.30
2017-08-02T04:51:48.186Z,38.70
2017-08-02T04:54:17.260Z,41.73
2017-08-02T04:56:45.477Z,39.63
2017-08-02T04:59:13.782Z,42.73
2017-08-02T05:01:42.006Z,40.73
2017-08-02T05:04:11.065Z,36.60
2017-08-02T05:06:39.362Z,35.30
2017-08-02T05:09:07.626Z,37.50
2017-08-02T05:11:35.982Z,37.87
2017-08-02T05:14:04.225Z,39.50
2017-08-02T05:16:33.395Z,40.07
2017-08-02T05:19:03.048Z,43.10
2017-08-02T05:21:32.682Z,45.40
2017-08-02T05:24:00.940Z,44.07
2017-08-02T05:26:29.200Z,40.33
2017-08-02T05:28:57.485Z,40.93
2017-08-02T05:31:25.727Z,46.57
2017-08-02T05:33:54.051Z,43.00
2017-08-02T05:36:22.288Z,41.97
2017-08-02T05:38:51.343Z,41.93
2017-08-02T05:41:19.627Z,39.00
2017-08-02T05:43:47.863Z,37.80
2017-08-02T05:46:16.135Z,36.40
2017-08-02T05:48:46.367Z,36.53
2017-08-02T05:51:14.634Z,35.70
2017-08-02T05:53:42.960Z,36.73
2017-08-02T05:56:11.189Z,38.97
2017-08-02T05:58:41.835Z,40.87
2017-08-02T06:01:10.115Z,48.40
2017-08-02T06:03:38.362Z,45.40
2017-08-02T06:06:07.395Z,43.70
2017-08-02T06:08:35.676Z,44.70
2017-08-02T06:11:04.647Z,43.23
2017-08-02T06:13:32.913Z,46.50
2017-08-02T06:16:02.119Z,47.10
2017-08-02T06:18:30.394Z,45.87
2017-08-02T06:20:58.665Z,43.07
2017-08-02T06:23:26.910Z,41.80
2017-08-02T06:25:56.103Z,43.40
2017-08-02T06:28:24.397Z,44.87
2017-08-02T06:30:52.694Z,45.60
2017-08-02T06:33:20.915Z,41.90
2017-08-02T06:35:49.171Z,43.17
2017-08-02T06:38:17.441Z,43.10
2017-08-02T06:40:45.712Z,40.10
2017-08-02T06:43:14.746Z,40.33
2017-08-02T06:45:43.040Z,39.87
2017-08-02T06:48:11.314Z,39.27
2017-08-02T06:50:39.562Z,40.43
2017-08-02T06:53:07.814Z,38.67
2017-08-02T06:55:36.065Z,39.10
2017-08-02T06:58:05.095Z,39.90
2017-08-02T07:00:33.598Z,38.00
2017-08-02T07:03:01.833Z,37.73
2017-08-02T07:05:30.127Z,35.27
2017-08-02T07:07:59.118Z,35.00
2017-08-02T07:10:28.117Z,36.97
2017-08-02T07:12:57.805Z,33.77
2017-08-02T07:15:26.886Z,33.30
2017-08-02T07:17:55.120Z,33.93
2017-08-02T07:20:23.487Z,35.50
2017-08-02T07:22:52.529Z,31.67
2017-08-02T07:25:22.117Z,32.03
2017-08-02T07:27:51.199Z,30.93
2017-08-02T07:30:20.293Z,29.57
2017-08-02T07:32:49.394Z,27.03
2017-08-02T07:35:19.318Z,23.70
2017-08-02T07:37:47.554Z,18.27
2017-08-02T07:40:16.604Z,13.23
2017-08-02T07:42:44.954Z,14.43
2017-08-02T07:45:14.034Z,12.40
2017-08-02T07:47:42.639Z,12.00
2017-08-02T07:50:11.681Z,9.17
2017-08-02T07:52:39.951Z,7.90
2017-08-02T07:55:08.222Z,8.70
2017-08-02T07:57:37.406Z,8.07
2017-08-02T08:00:05.763Z,8.67
2017-08-02T08:02:34.750Z,8.30
2017-08-02T08:05:02.990Z,6.80
2017-08-02T08:07:31.990Z,7.37
2017-08-02T08:10:01.438Z,6.27
2017-08-02T08:12:29.670Z,7.13
2017-08-02T08:14:58.685Z,6.43
2017-08-02T08:17:26.947Z,6.70
2017-08-02T08:19:55.962Z,7.70
2017-08-02T08:22:24.211Z,6.77
2017-08-02T08:24:52.475Z,6.40
2017-08-02T08:27:20.782Z,7.40
2017-08-02T08:29:49.116Z,6.80
2017-08-02T08:32:17.427Z,6.07
2017-08-02T08:34:45.693Z,6.13
2017-08-02T08:37:13.951Z,6.20
2017-08-02T08:39:42.212Z,7.00
2017-08-02T08:42:10.485Z,7.00
2017-08-02T08:44:38.757Z,7.77
2017-08-02T08:47:07.795Z,6.90
2017-08-02T08:49:36.846Z,7.40
2017-08-02T08:52:05.085Z,7.20
2017-08-02T08:54:34.110Z,6.13
2017-08-02T08:57:02.801Z,7.30
2017-08-02T08:59:31.025Z,7.93
2017-08-02T09:01:59.279Z,7.63
2017-08-02T09:04:27.568Z,8.37
2017-08-02T09:06:55.839Z,9.03
2017-08-02T09:09:25.690Z,7.60
2017-08-02T09:11:55.761Z,7.50
2017-08-02T09:14:23.997Z,6.30
2017-08-02T09:16:52.403Z,7.80
2017-08-02T09:19:21.560Z,6.40
2017-08-02T09:21:50.615Z,6.27
2017-08-02T09:24:19.253Z,5.63
2017-08-02T09:26:47.519Z,5.90
2017-08-02T09:29:16.530Z,6.60
2017-08-02T09:31:46.795Z,6.10
2017-08-02T09:34:18.587Z,6.67
2017-08-02T09:36:49.367Z,4.70
2017-08-02T09:39:19.287Z,4.50
2017-08-02T09:41:47.550Z,4.90
2017-08-02T09:44:15.818Z,4.67
2017-08-02T09:46:44.654Z,4.40
2017-08-02T09:49:13.265Z,4.10
2017-08-02T09:51:44.370Z,4.17
2017-08-02T09:54:16.008Z,5.33
2017-08-02T09:56:45.107Z,4.30
2017-08-02T09:59:13.363Z,4.00
2017-08-02T10:01:41.988Z,3.27
2017-08-02T10:04:10.260Z,5.30
2017-08-02T10:06:39.519Z,4.07
2017-08-02T10:09:08.779Z,3.90
2017-08-02T10:11:38.218Z,3.97
2017-08-02T10:14:07.239Z,4.50
2017-08-02T10:16:35.510Z,4.17
2017-08-02T10:19:05.219Z,3.60
2017-08-02T10:21:34.231Z,4.33
2017-08-02T10:24:02.504Z,3.50
2017-08-02T10:26:33.707Z,3.20
2017-08-02T10:29:02.727Z,3.20
2017-08-02T10:31:31.028Z,4.17
2017-08-02T10:33:59.619Z,4.10
2017-08-02T10:36:27.986Z,3.10
2017-08-02T10:38:56.415Z,4.50
2017-08-02T10:41:25.872Z,3.73
2017-08-02T10:43:54.956Z,3.43
2017-08-02T10:46:23.594Z,3.27
2017-08-02T10:48:51.846Z,3.10
2017-08-02T10:51:20.165Z,4.37
2017-08-02T10:53:48.473Z,3.97
2017-08-02T10:56:17.473Z,3.50
2017-08-02T10:58:46.672Z,4.70
2017-08-02T11:01:14.953Z,3.93
2017-08-02T11:03:44.224Z,4.20
2017-08-02T11:06:12.513Z,4.27
2017-08-02T11:08:41.735Z,3.73
2017-08-02T11:11:10.023Z,3.77
2017-08-02T11:13:38.333Z,4.53
2017-08-02T11:16:06.605Z,3.90
2017-08-02T11:18:34.861Z,3.63
2017-08-02T11:21:04.293Z,4.50
2017-08-02T11:23:34.026Z,4.10
2017-08-02T11:26:02.952Z,3.33
2017-08-02T11:28:33.409Z,3.87
2017-08-02T11:31:01.812Z,3.90
2017-08-02T11:33:30.139Z,4.10
2017-08-02T11:35:58.580Z,4.03
2017-08-02T11:38:28.567Z,3.20
2017-08-02T11:40:57.723Z,3.37
2017-08-02T11:43:26.961Z,2.87
2017-08-02T11:45:55.360Z,2.80
2017-08-02T11:48:23.650Z,3.10
2017-08-02T11:50:52.815Z,3.50
2017-08-02T11:53:21.133Z,2.87
2017-08-02T11:55:49.416Z,3.10
2017-08-02T11:58:17.680Z,2.87
2017-08-02T12:00:46.705Z,3.27
2017-08-02T12:03:15.006Z,3.00
2017-08-02T12:05:43.281Z,3.20
2017-08-02T12:08:13.230Z,3.00
2017-08-02T12:10:41.516Z,3.00
2017-08-02T12:13:09.770Z,4.23
2017-08-02T12:15:38.054Z,3.80
2017-08-02T12:18:07.658Z,2.87
2017-08-02T12:20:35.941Z,3.03
2017-08-02T12:23:04.213Z,2.60
2017-08-02T12:25:32.980Z,2.83
2017-08-02T12:28:01.365Z,2.90
2017-08-02T12:30:29.615Z,3.40
2017-08-02T12:32:59.917Z,2.83
2017-08-02T12:35:28.964Z,3.27
2017-08-02T12:37:57.845Z,2.70
2017-08-02T12:40:26.234Z,3.20
2017-08-02T12:42:54.482Z,4.40
2017-08-02T12:45:22.751Z,2.93
2017-08-02T12:47:51.463Z,3.60
2017-08-02T12:50:19.715Z,2.33
2017-08-02T12:52:48.124Z,3.07
2017-08-02T12:55:16.371Z,3.27
2017-08-02T12:57:45.380Z,2.53
2017-08-02T13:00:13.635Z,3.40
2017-08-02T13:02:42.633Z,3.00
2017-08-02T13:05:12.561Z,3.13
2017-08-02T13:07:41.781Z,4.87
2017-08-02T13:10:10.827Z,2.60
2017-08-02T13:12:42.022Z,3.37
2017-08-02T13:15:10.339Z,3.20
2017-08-02T13:17:38.622Z,4.27
2017-08-02T13:20:07.604Z,3.07
2017-08-02T13:22:36.470Z,2.93
2017-08-02T13:25:05.900Z,2.77
2017-08-02T13:27:34.203Z,3.37
2017-08-02T13:30:03.216Z,4.07
2017-08-02T13:32:32.352Z,3.97
2017-08-02T13:35:01.522Z,3.23
2017-08-02T13:37:29.834Z,3.40
2017-08-02T13:39:58.107Z,3.90
2017-08-02T13:42:26.430Z,4.67
2017-08-02T13:44:54.717Z,3.00
2017-08-02T13:47:22.964Z,4.90
2017-08-02T13:49:51.203Z,5.33
2017-08-02T13:52:19.447Z,3.40
2017-08-02T13:54:48.478Z,2.67
2017-08-02T13:57:16.744Z,2.70
2017-08-02T13:59:44.976Z,3.20
2017-08-02T14:02:14.031Z,3.23
2017-08-02T14:04:42.269Z,3.73
2017-08-02T14:07:10.532Z,3.10
2017-08-02T14:09:38.771Z,3.63
2017-08-02T14:12:07.028Z,3.27
2017-08-02T14:14:36.204Z,3.00
2017-08-02T14:17:05.232Z,2.87
2017-08-02T14:19:33.491Z,3.40
2017-08-02T14:22:01.768Z,3.20
2017-08-02T14:24:30.011Z,3.13
2017-08-02T14:26:59.045Z,3.60
2017-08-02T14:29:27.316Z,2.80
2017-08-02T14:31:55.553Z,3.50
2017-08-02T14:34:24.580Z,5.40
2017-08-02T14:36:52.946Z,3.33
2017-08-02T14:39:22.065Z,3.80
2017-08-02T14:41:51.043Z,3.63
2017-08-02T14:44:19.364Z,3.63
2017-08-02T14:46:47.726Z,3.37
2017-08-02T14:49:17.002Z,4.40
2017-08-02T14:51:45.247Z,3.30
2017-08-02T14:54:14.300Z,3.30
2017-08-02T14:56:42.654Z,3.30
2017-08-02T14:59:11.645Z,3.70
2017-08-02T15:01:40.644Z,4.03
2017-08-02T15:04:08.902Z,4.03
2017-08-02T15:06:37.175Z,3.87
2017-08-02T15:09:06.815Z,3.90
2017-08-02T15:11:36.002Z,2.90
2017-08-02T15:14:05.240Z,3.80
2017-08-02T15:16:33.480Z,3.50
2017-08-02T15:19:01.750Z,3.30
2017-08-02T15:21:29.995Z,3.43
2017-08-02T15:23:59.852Z,3.70
2017-08-02T15:26:28.089Z,3.40
2017-08-02T15:28:56.348Z,4.13
2017-08-02T15:31:25.585Z,3.37
2017-08-02T15:33:54.640Z,3.60
2017-08-02T15:36:22.930Z,3.67
2017-08-02T15:38:51.280Z,4.13
2017-08-02T15:41:20.270Z,3.93
2017-08-02T15:43:49.025Z,3.80
2017-08-02T15:46:17.300Z,3.93
2017-08-02T15:48:46.467Z,4.30
2017-08-02T15:51:15.482Z,3.50
2017-08-02T15:53:43.974Z,4.73
2017-08-02T15:56:13.015Z,4.57
2017-08-02T15:58:42.824Z,3.77
2017-08-02T16:01:11.366Z,4.70
2017-08-02T16:03:39.678Z,3.87
2017-08-02T16:06:07.947Z,4.30
2017-08-02T16:08:36.209Z,4.47
2017-08-02T16:11:06.155Z,4.60
2017-08-02T16:13:36.231Z,5.03
2017-08-02T16:16:06.704Z,5.10
2017-08-02T16:18:35.501Z,5.90
2017-08-02T16:21:03.795Z,4.93
2017-08-02T16:23:35.074Z,4.40
2017-08-02T16:26:04.096Z,4.97
2017-08-02T16:28:32.374Z,5.60
2017-08-02T16:31:00.657Z,6.47
2017-08-02T16:33:31.681Z,5.07
2017-08-02T16:36:01.142Z,5.30
2017-08-02T16:38:29.371Z,6.00
2017-08-02T16:40:57.655Z,7.10
2017-08-02T16:43:26.802Z,5.67
2017-08-02T16:45:55.071Z,5.93
2017-08-02T16:48:23.377Z,5.73
2017-08-02T16:50:51.651Z,8.70
2017-08-02T16:53:19.939Z,6.30
2017-08-02T16:55:48.242Z,5.37
2017-08-02T16:58:16.485Z,5.73
2017-08-02T17:00:45.543Z,5.70
2017-08-02T17:03:15.198Z,6.03
2017-08-02T17:05:43.509Z,5.80
2017-08-02T17:08:13.324Z,5.40
2017-08-02T17:10:43.274Z,6.70
2017-08-02T17:13:11.552Z,6.50
2017-08-02T17:15:40.922Z,7.00
2017-08-02T17:18:09.195Z,6.43
2017-08-02T17:20:41.387Z,6.30
2017-08-02T17:23:11.382Z,6.10
2017-08-02T17:25:40.763Z,6.17
2017-08-02T17:28:12.108Z,7.20
2017-08-02T17:30:40.449Z,7.77
2017-08-02T17:33:10.162Z,5.83
2017-08-02T17:35:39.315Z,6.87
2017-08-02T17:38:08.712Z,7.10
2017-08-02T17:40:38.278Z,6.90
2017-08-02T17:43:08.024Z,6.77
2017-08-02T17:45:36.277Z,6.70
2017-08-02T17:48:05.335Z,8.33
2017-08-02T17:50:36.678Z,6.30
2017-08-02T17:53:06.915Z,6.30
2017-08-02T17:55:36.231Z,8.23
2017-08-02T17:58:06.435Z,6.40
2017-08-02T18:00:34.724Z,7.27
2017-08-02T18:03:04.509Z,6.60
2017-08-02T18:05:33.750Z,8.13
2017-08-02T18:08:02.814Z,8.50
2017-08-02T18:10:31.811Z,8.73
2017-08-02T18:13:00.069Z,7.67
2017-08-02T18:15:29.909Z,7.40
2017-08-02T18:17:58.198Z,8.27
2017-08-02T18:20:26.469Z,7.00
2017-08-02T18:22:54.800Z,6.50
2017-08-02T18:25:23.283Z,8.00
2017-08-02T18:27:51.566Z,9.40
2017-08-02T18:30:19.857Z,6.63
2017-08-02T18:32:48.184Z,6.37
2017-08-02T18:35:17.225Z,8.07
2017-08-02T18:37:46.560Z,6.47
2017-08-02T18:40:15.312Z,8.00
2017-08-02T18:42:43.569Z,7.47
2017-08-02T18:45:12.613Z,7.20
2017-08-02T18:47:42.782Z,8.90
2017-08-02T18:50:11.064Z,7.57
2017-08-02T18:52:39.459Z,7.90
2017-08-02T18:55:08.286Z,8.67
2017-08-02T18:57:36.576Z,8.67
2017-08-02T19:00:05.576Z,7.67
2017-08-02T19:02:34.613Z,9.60
2017-08-02T19:05:02.894Z,8.00
2017-08-02T19:07:31.171Z,7.93
2017-08-02T19:09:59.889Z,8.43
2017-08-02T19:12:28.228Z,8.87
2017-08-02T19:14:57.299Z,8.90
2017-08-02T19:17:28.035Z,9.20
2017-08-02T19:19:58.841Z,11.10
2017-08-02T19:22:29.908Z,9.80
2017-08-02T19:25:00.280Z,9.00
2017-08-02T19:27:30.155Z,9.57
2017-08-02T19:30:01.049Z,10.40
2017-08-02T19:32:29.904Z,11.73
2017-08-02T19:34:59.218Z,9.70
2017-08-02T19:37:29.339Z,8.37
2017-08-02T19:39:57.928Z,9.87
2017-08-02T19:42:26.637Z,10.80
2017-08-02T19:44:55.502Z,10.30
2017-08-02T19:47:23.831Z,9.70
2017-08-02T19:49:54.109Z,9.90
2017-08-02T19:52:22.706Z,10.60
2017-08-02T19:54:51.441Z,9.57
2017-08-02T19:57:21.832Z,9.20
2017-08-02T19:59:50.136Z,9.17
2017-08-02T20:02:20.431Z,9.00
2017-08-02T20:04:48.672Z,10.17
2017-08-02T20:07:17.808Z,9.70
2017-08-02T20:09:46.068Z,8.83
2017-08-02T20:12:15.872Z,8.87
2017-08-02T20:14:45.111Z,8.53
2017-08-02T20:17:17.553Z,9.27
2017-08-02T20:19:45.867Z,9.53
2017-08-02T20:22:14.939Z,8.93
2017-08-02T20:24:43.197Z,8.50
2017-08-02T20:27:12.274Z,9.40
2017-08-02T20:29:42.200Z,9.20
2017-08-02T20:32:11.283Z,9.97
2017-08-02T20:34:39.616Z,8.60
2017-08-02T20:37:09.594Z,9.17
2017-08-02T20:39:38.203Z,8.97
2017-08-02T20:42:07.295Z,9.63
2017-08-02T20:44:36.437Z,9.67
2017-08-02T20:47:05.574Z,9.33
2017-08-02T20:49:34.476Z,8.77
2017-08-02T20:52:03.617Z,9.30
2017-08-02T20:54:33.436Z,9.23
2017-08-02T20:57:04.241Z,9.33
2017-08-02T20:59:36.078Z,8.60
2017-08-02T21:02:05.727Z,9.60
2017-08-02T21:04:38.352Z,10.07
2017-08-02T21:07:08.544Z,9.70
2017-08-02T21:09:42.156Z,9.47
2017-08-02T21:12:12.001Z,8.73
2017-08-02T21:14:42.792Z,9.13
2017-08-02T21:17:12.485Z,9.10
2017-08-02T21:19:41.495Z,8.20
2017-08-02T21:22:13.410Z,9.77
2017-08-02T21:24:42.183Z,11.53
2017-08-02T21:27:10.466Z,10.30
2017-08-02T21:29:40.951Z,10.40
2017-08-02T21:32:10.273Z,9.67
2017-08-02T21:34:40.558Z,9.00
2017-08-02T21:37:09.695Z,10.30
2017-08-02T21:39:39.393Z,9.60
2017-08-02T21:42:08.459Z,10.20
2017-08-02T21:44:36.739Z,9.20
2017-08-02T21:47:06.733Z,9.33
2017-08-02T21:49:34.981Z,8.63
2017-08-02T21:52:09.017Z,9.20
2017-08-02T21:54:39.202Z,10.67
2017-08-02T21:57:07.468Z,11.50
2017-08-02T21:59:35.766Z,13.27
2017-08-02T22:02:05.716Z,10.50
2017-08-02T22:04:34.701Z,11.33
2017-08-02T22:07:02.991Z,11.00
2017-08-02T22:09:31.464Z,10.83
2017-08-02T22:12:01.090Z,12.37
2017-08-02T22:14:29.345Z,11.70
2017-08-02T22:16:58.805Z,11.60
2017-08-02T22:19:28.906Z,12.00
2017-08-02T22:21:58.763Z,11.67
2017-08-02T22:24:28.615Z,12.67
2017-08-02T22:26:57.960Z,12.07
2017-08-02T22:29:28.069Z,10.90
2017-08-02T22:31:57.183Z,12.37
2017-08-02T22:34:26.744Z,13.33
2017-08-02T22:36:54.998Z,13.77
2017-08-02T22:39:25.975Z,13.37
2017-08-02T22:41:55.110Z,12.37
2017-08-02T22:44:24.442Z,11.17
2017-08-02T22:46:56.505Z,11.50
2017-08-02T22:49:26.449Z,13.13
2017-08-02T22:51:56.122Z,12.80
2017-08-02T22:54:25.330Z,13.40
2017-08-02T22:56:53.652Z,14.70
2017-08-02T22:59:21.964Z,13.57
2017-08-02T23:01:51.323Z,15.50
2017-08-02T23:04:22.200Z,14.33
2017-08-02T23:06:50.538Z,14.70
2017-08-02T23:09:19.335Z,16.70
2017-08-02T23:11:48.050Z,13.43
2017-08-02T23:14:17.422Z,15.93
2017-08-02T23:16:45.669Z,11.90
2017-08-02T23:19:14.687Z,12.93
2017-08-02T23:21:42.941Z,13.17
2017-08-02T23:24:15.662Z,12.70
2017-08-02T23:26:44.998Z,13.63
2017-08-02T23:29:14.107Z,15.23
2017-08-02T23:31:43.115Z,14.40
2017-08-02T23:34:11.390Z,13.13
2017-08-02T23:36:39.690Z,10.80
2017-08-02T23:39:07.999Z,12.70
2017-08-02T23:41:36.271Z,11.93
2017-08-02T23:44:05.638Z,11.43
2017-08-02T23:46:34.495Z,12.10
2017-08-02T23:49:03.731Z,12.47
2017-08-02T23:51:32.001Z,12.70
2017-08-02T23:54:02.411Z,11.50
2017-08-02T23:56:32.754Z,12.60
2017-08-02T23:59:02.472Z,10.60
